createdAt,value
2022-12-18T00:00:25.300Z,91.56
2022-12-18T00:01:25.327Z,91.46
2022-12-18T00:02:25.268Z,91.39
2022-12-18T00:03:25.458Z,90.44
2022-12-18T00:04:25.339Z,91.08
2022-12-18T00:05:25.228Z,91.29
2022-12-18T00:06:25.212Z,90.86
2022-12-18T00:07:25.219Z,90.65
2022-12-18T00:08:25.199Z,90.86
2022-12-18T00:09:25.191Z,90.97
2022-12-18T00:10:26.171Z,91.22
2022-12-18T00:11:25.166Z,91.22
2022-12-18T00:12:25.164Z,91.08
2022-12-18T00:13:25.138Z,91.18
2022-12-18T00:14:25.137Z,91.01
2022-12-18T00:15:25.122Z,90.59
2022-12-18T00:16:25.203Z,90.91
2022-12-18T00:17:25.122Z,91.05
2022-12-18T00:18:25.092Z,90.52
2022-12-18T00:19:25.091Z,91.69
2022-12-18T00:20:25.062Z,91.37
2022-12-18T00:21:25.069Z,91.86
2022-12-18T00:22:25.045Z,91.86
2022-12-18T00:23:25.051Z,91.75
2022-12-18T00:24:25.023Z,92.07
2022-12-18T00:25:25.023Z,91.86
2022-12-18T00:26:25.001Z,92.18
2022-12-18T00:27:25.011Z,92.07
2022-12-18T00:28:25.000Z,91.71
2022-12-18T00:29:24.974Z,91.61
2022-12-18T00:30:24.970Z,91.86
2022-12-18T00:31:25.085Z,92.13
2022-12-18T00:32:24.956Z,91.75
2022-12-18T00:33:24.957Z,90.91
2022-12-18T00:34:24.919Z,91.22
2022-12-18T00:35:24.907Z,91.22
2022-12-18T00:36:24.910Z,91.22
2022-12-18T00:37:24.911Z,90.59
2022-12-18T00:38:24.866Z,90.59
2022-12-18T00:39:24.861Z,90.27
2022-12-18T00:40:24.845Z,90.69
2022-12-18T00:41:24.864Z,90.59
2022-12-18T00:42:24.832Z,90.27
2022-12-18T00:43:24.828Z,90.69
2022-12-18T00:44:24.804Z,90.59
2022-12-18T00:45:24.844Z,90.37
2022-12-18T00:46:24.817Z,90.37
2022-12-18T00:47:24.775Z,90.16
2022-12-18T00:48:24.786Z,89.95
2022-12-18T00:49:24.773Z,89.89
2022-12-18T00:50:24.762Z,90.06
2022-12-18T00:51:24.783Z,90.20
2022-12-18T00:52:24.717Z,89.74
2022-12-18T00:53:24.712Z,89.57
2022-12-18T00:54:24.698Z,89.99
2022-12-18T00:55:24.705Z,89.89
2022-12-18T00:56:24.676Z,89.78
2022-12-18T00:57:24.708Z,89.78
2022-12-18T00:58:24.663Z,89.89
2022-12-18T00:59:31.763Z,89.78
2022-12-18T01:00:24.635Z,89.78
2022-12-18T01:01:24.708Z,90.20
2022-12-18T01:02:24.690Z,90.20
2022-12-18T01:03:24.616Z,90.20
2022-12-18T01:04:24.614Z,90.20
2022-12-18T01:05:24.633Z,90.16
2022-12-18T01:06:24.586Z,90.10
2022-12-18T01:07:24.570Z,90.10
2022-12-18T01:08:24.551Z,90.20
2022-12-18T01:09:24.551Z,89.78
2022-12-18T01:10:24.534Z,89.78
2022-12-18T01:11:24.526Z,89.89
2022-12-18T01:12:24.508Z,89.46
2022-12-18T01:13:24.507Z,89.78
2022-12-18T01:14:24.507Z,89.78
2022-12-18T01:15:24.477Z,89.89
2022-12-18T01:16:24.505Z,89.89
2022-12-18T01:17:24.459Z,89.57
2022-12-18T01:18:24.444Z,89.46
2022-12-18T01:19:24.445Z,89.57
2022-12-18T01:20:24.462Z,89.67
2022-12-18T01:21:24.406Z,89.46
2022-12-18T01:22:24.398Z,89.46
2022-12-18T01:23:24.397Z,89.57
2022-12-18T01:24:24.386Z,89.46
2022-12-18T01:25:24.369Z,89.36
2022-12-18T01:26:24.364Z,89.25
2022-12-18T01:27:24.347Z,89.89
2022-12-18T01:28:24.338Z,89.67
2022-12-18T01:29:24.332Z,89.67
2022-12-18T01:30:24.318Z,89.36
2022-12-18T01:31:24.363Z,89.46
2022-12-18T01:32:24.315Z,89.14
2022-12-18T01:33:24.285Z,89.89
2022-12-18T01:34:24.281Z,89.46
2022-12-18T01:35:24.271Z,89.89
2022-12-18T01:36:24.250Z,89.46
2022-12-18T01:37:24.238Z,89.57
2022-12-18T01:38:24.230Z,89.46
2022-12-18T01:39:24.224Z,89.00
2022-12-18T01:40:24.208Z,89.31
2022-12-18T01:41:24.206Z,89.89
2022-12-18T01:42:24.200Z,89.46
2022-12-18T01:43:24.191Z,89.46
2022-12-18T01:44:24.183Z,89.36
2022-12-18T01:45:24.173Z,89.78
2022-12-18T01:46:24.149Z,89.78
2022-12-18T01:47:24.138Z,89.99
2022-12-18T01:48:24.119Z,89.89
2022-12-18T01:49:24.112Z,89.67
2022-12-18T01:50:24.130Z,89.46
2022-12-18T01:51:24.088Z,89.67
2022-12-18T01:52:24.084Z,89.46
2022-12-18T01:53:24.071Z,89.46
2022-12-18T01:54:24.063Z,88.82
2022-12-18T01:55:24.048Z,88.72
2022-12-18T01:56:24.057Z,89.08
2022-12-18T01:57:24.022Z,88.55
2022-12-18T01:58:24.017Z,89.29
2022-12-18T01:59:24.005Z,89.08
2022-12-18T02:00:23.997Z,89.18
2022-12-18T02:01:24.081Z,89.40
2022-12-18T02:02:24.126Z,89.29
2022-12-18T02:03:24.035Z,89.08
2022-12-18T02:04:23.964Z,89.18
2022-12-18T02:05:23.942Z,89.08
2022-12-18T02:06:23.930Z,88.55
2022-12-18T02:07:23.939Z,89.29
2022-12-18T02:08:23.912Z,88.97
2022-12-18T02:09:23.905Z,88.76
2022-12-18T02:10:23.906Z,89.29
2022-12-18T02:11:23.878Z,89.29
2022-12-18T02:12:23.878Z,89.08
2022-12-18T02:13:23.981Z,89.29
2022-12-18T02:14:23.846Z,89.40
2022-12-18T02:15:23.837Z,88.65
2022-12-18T02:16:23.912Z,88.06
2022-12-18T02:17:23.807Z,87.84
2022-12-18T02:18:23.811Z,88.27
2022-12-18T02:19:23.798Z,87.95
2022-12-18T02:20:23.780Z,87.74
2022-12-18T02:21:23.770Z,88.06
2022-12-18T02:22:23.775Z,88.06
2022-12-18T02:23:23.763Z,88.06
2022-12-18T02:24:23.744Z,88.17
2022-12-18T02:25:23.726Z,88.44
2022-12-18T02:26:23.720Z,88.44
2022-12-18T02:27:23.706Z,88.59
2022-12-18T02:28:23.712Z,88.65
2022-12-18T02:29:23.815Z,88.70
2022-12-18T02:30:23.710Z,88.06
2022-12-18T02:31:23.664Z,88.27
2022-12-18T02:32:23.655Z,88.06
2022-12-18T02:33:23.651Z,87.95
2022-12-18T02:34:23.634Z,88.06
2022-12-18T02:35:23.639Z,88.48
2022-12-18T02:36:23.627Z,88.48
2022-12-18T02:37:23.601Z,88.80
2022-12-18T02:38:23.589Z,88.70
2022-12-18T02:39:23.582Z,88.59
2022-12-18T02:40:23.576Z,88.59
2022-12-18T02:41:23.560Z,88.37
2022-12-18T02:42:23.550Z,88.59
2022-12-18T02:43:23.545Z,88.48
2022-12-18T02:44:23.533Z,88.90
2022-12-18T02:45:23.644Z,89.54
2022-12-18T02:46:23.509Z,89.43
2022-12-18T02:47:23.497Z,89.43
2022-12-18T02:48:23.489Z,89.26
2022-12-18T02:49:23.507Z,89.43
2022-12-18T02:50:23.471Z,89.33
2022-12-18T02:51:23.453Z,89.12
2022-12-18T02:52:23.444Z,89.12
2022-12-18T02:53:23.431Z,89.12
2022-12-18T02:54:23.426Z,89.33
2022-12-18T02:55:23.419Z,89.33
2022-12-18T02:56:23.411Z,89.43
2022-12-18T02:57:23.389Z,88.70
2022-12-18T02:58:23.380Z,88.59
2022-12-18T02:59:23.373Z,88.59
2022-12-18T03:00:23.372Z,88.27
2022-12-18T03:01:23.602Z,88.59
2022-12-18T03:02:23.588Z,88.37
2022-12-18T03:03:23.351Z,88.63
2022-12-18T03:04:23.323Z,88.63
2022-12-18T03:05:23.312Z,88.27
2022-12-18T03:06:23.300Z,88.59
2022-12-18T03:07:23.285Z,88.59
2022-12-18T03:08:23.292Z,88.70
2022-12-18T03:09:23.266Z,88.70
2022-12-18T03:10:23.268Z,88.70
2022-12-18T03:11:23.244Z,88.59
2022-12-18T03:12:23.234Z,88.59
2022-12-18T03:13:23.224Z,88.37
2022-12-18T03:14:23.217Z,88.48
2022-12-18T03:15:23.196Z,88.37
2022-12-18T03:16:23.286Z,88.48
2022-12-18T03:17:23.299Z,88.42
2022-12-18T03:18:23.169Z,88.59
2022-12-18T03:19:23.166Z,88.70
2022-12-18T03:20:23.154Z,88.17
2022-12-18T03:21:23.277Z,87.84
2022-12-18T03:22:23.133Z,88.06
2022-12-18T03:23:26.079Z,87.95
2022-12-18T03:24:23.105Z,88.06
2022-12-18T03:25:23.105Z,88.06
2022-12-18T03:26:23.089Z,88.06
2022-12-18T03:27:23.088Z,88.37
2022-12-18T03:28:23.074Z,88.17
2022-12-18T03:29:23.054Z,88.20
2022-12-18T03:30:23.049Z,87.84
2022-12-18T03:31:23.147Z,88.27
2022-12-18T03:32:23.037Z,88.06
2022-12-18T03:33:23.133Z,88.10
2022-12-18T03:34:23.006Z,87.99
2022-12-18T03:35:22.999Z,87.88
2022-12-18T03:36:22.988Z,87.67
2022-12-18T03:37:22.977Z,87.35
2022-12-18T03:38:22.962Z,87.35
2022-12-18T03:39:22.950Z,87.25
2022-12-18T03:40:22.937Z,87.35
2022-12-18T03:41:22.943Z,87.25
2022-12-18T03:42:22.934Z,87.67
2022-12-18T03:43:22.905Z,87.35
2022-12-18T03:44:22.899Z,87.35
2022-12-18T03:45:22.882Z,87.39
2022-12-18T03:46:22.917Z,87.25
2022-12-18T03:47:22.888Z,87.60
2022-12-18T03:48:22.856Z,87.60
2022-12-18T03:49:22.953Z,87.67
2022-12-18T03:50:22.833Z,87.71
2022-12-18T03:51:22.819Z,88.10
2022-12-18T03:52:22.844Z,88.03
2022-12-18T03:53:22.827Z,87.99
2022-12-18T03:54:22.789Z,88.03
2022-12-18T03:55:22.777Z,88.10
2022-12-18T03:56:22.770Z,87.82
2022-12-18T03:57:22.756Z,88.13
2022-12-18T03:58:22.757Z,88.03
2022-12-18T03:59:22.748Z,88.10
2022-12-18T04:00:22.728Z,87.35
2022-12-18T04:01:22.805Z,87.35
2022-12-18T04:02:22.826Z,87.60
2022-12-18T04:03:26.433Z,87.39
2022-12-18T04:04:22.695Z,87.25
2022-12-18T04:05:22.792Z,87.35
2022-12-18T04:06:22.670Z,87.29
2022-12-18T04:07:22.655Z,87.60
2022-12-18T04:08:22.660Z,87.29
2022-12-18T04:09:22.643Z,87.29
2022-12-18T04:10:22.622Z,87.60
2022-12-18T04:11:22.611Z,87.92
2022-12-18T04:12:22.608Z,88.03
2022-12-18T04:13:22.589Z,88.10
2022-12-18T04:14:22.602Z,87.78
2022-12-18T04:15:22.585Z,88.10
2022-12-18T04:16:22.569Z,88.20
2022-12-18T04:17:22.576Z,88.10
2022-12-18T04:18:22.556Z,87.99
2022-12-18T04:19:22.535Z,88.10
2022-12-18T04:20:22.524Z,88.10
2022-12-18T04:21:22.627Z,88.20
2022-12-18T04:22:22.507Z,87.99
2022-12-18T04:23:22.504Z,88.03
2022-12-18T04:24:22.494Z,87.88
2022-12-18T04:25:22.472Z,88.20
2022-12-18T04:26:22.471Z,88.24
2022-12-18T04:27:22.450Z,88.13
2022-12-18T04:28:22.457Z,88.35
2022-12-18T04:29:22.435Z,88.35
2022-12-18T04:30:22.423Z,87.92
2022-12-18T04:31:22.526Z,88.24
2022-12-18T04:32:22.417Z,87.82
2022-12-18T04:33:22.379Z,87.99
2022-12-18T04:34:22.379Z,88.20
2022-12-18T04:35:22.380Z,88.56
2022-12-18T04:36:22.353Z,88.56
2022-12-18T04:37:22.458Z,88.56
2022-12-18T04:38:22.344Z,88.95
2022-12-18T04:39:22.337Z,88.56
2022-12-18T04:40:22.316Z,88.56
2022-12-18T04:41:22.313Z,88.63
2022-12-18T04:42:22.294Z,88.45
2022-12-18T04:43:22.390Z,88.67
2022-12-18T04:44:22.274Z,88.78
2022-12-18T04:45:22.271Z,88.56
2022-12-18T04:46:22.273Z,88.78
2022-12-18T04:47:22.242Z,88.78
2022-12-18T04:48:22.226Z,88.67
2022-12-18T04:49:22.212Z,88.45
2022-12-18T04:50:22.223Z,88.56
2022-12-18T04:51:26.289Z,88.56
2022-12-18T04:52:25.122Z,88.56
2022-12-18T04:53:22.175Z,89.48
2022-12-18T04:54:22.166Z,89.62
2022-12-18T04:55:22.161Z,89.26
2022-12-18T04:56:22.138Z,89.37
2022-12-18T04:57:22.137Z,89.09
2022-12-18T04:58:22.124Z,88.78
2022-12-18T04:59:22.104Z,89.41
2022-12-18T05:00:22.099Z,88.95
2022-12-18T05:01:22.171Z,89.05
2022-12-18T05:02:22.260Z,89.05
2022-12-18T05:03:22.144Z,89.79
2022-12-18T05:04:22.059Z,89.26
2022-12-18T05:05:22.037Z,88.84
2022-12-18T05:06:22.037Z,89.37
2022-12-18T05:07:22.027Z,89.16
2022-12-18T05:08:22.147Z,89.05
2022-12-18T05:09:22.000Z,89.26
2022-12-18T05:10:22.003Z,89.26
2022-12-18T05:11:21.975Z,88.63
2022-12-18T05:12:21.968Z,89.69
2022-12-18T05:13:21.973Z,90.01
2022-12-18T05:14:21.951Z,90.22
2022-12-18T05:15:21.952Z,89.37
2022-12-18T05:16:21.978Z,89.37
2022-12-18T05:17:21.912Z,89.26
2022-12-18T05:18:21.909Z,89.86
2022-12-18T05:19:21.893Z,89.86
2022-12-18T05:20:21.883Z,89.54
2022-12-18T05:21:21.893Z,90.18
2022-12-18T05:22:21.863Z,89.97
2022-12-18T05:23:21.858Z,90.56
2022-12-18T05:24:21.955Z,90.25
2022-12-18T05:25:21.827Z,89.93
2022-12-18T05:26:21.834Z,90.14
2022-12-18T05:27:21.807Z,90.35
2022-12-18T05:28:21.814Z,90.35
2022-12-18T05:29:21.793Z,89.93
2022-12-18T05:30:21.772Z,90.03
2022-12-18T05:31:21.800Z,90.35
2022-12-18T05:32:21.754Z,90.25
2022-12-18T05:33:21.754Z,90.25
2022-12-18T05:34:21.737Z,89.97
2022-12-18T05:35:21.738Z,90.14
2022-12-18T05:36:21.712Z,89.93
2022-12-18T05:37:21.701Z,89.65
2022-12-18T05:38:21.704Z,89.97
2022-12-18T05:39:21.685Z,89.86
2022-12-18T05:40:21.806Z,89.43
2022-12-18T05:41:21.667Z,89.33
2022-12-18T05:42:21.653Z,89.54
2022-12-18T05:43:21.852Z,89.86
2022-12-18T05:44:21.627Z,89.54
2022-12-18T05:45:21.619Z,89.97
2022-12-18T05:46:21.680Z,89.90
2022-12-18T05:47:21.608Z,89.97
2022-12-18T05:48:21.593Z,89.90
2022-12-18T05:49:21.584Z,89.33
2022-12-18T05:50:21.576Z,89.54
2022-12-18T05:51:21.563Z,89.58
2022-12-18T05:52:21.544Z,89.58
2022-12-18T05:53:21.553Z,89.79
2022-12-18T05:54:21.536Z,89.54
2022-12-18T05:55:21.516Z,89.43
2022-12-18T05:56:21.630Z,89.22
2022-12-18T05:57:21.496Z,89.75
2022-12-18T05:58:21.501Z,89.97
2022-12-18T05:59:21.488Z,89.65
2022-12-18T06:00:21.458Z,89.97
2022-12-18T06:01:21.558Z,89.97
2022-12-18T06:02:21.532Z,89.97
2022-12-18T06:03:21.575Z,90.18
2022-12-18T06:04:21.427Z,90.18
2022-12-18T06:05:21.433Z,89.65
2022-12-18T06:06:21.407Z,89.86
2022-12-18T06:07:21.392Z,89.97
2022-12-18T06:08:21.384Z,89.97
2022-12-18T06:09:21.371Z,90.08
2022-12-18T06:10:21.373Z,90.28
2022-12-18T06:11:21.344Z,90.25
2022-12-18T06:12:21.449Z,89.97
2022-12-18T06:13:21.334Z,90.56
2022-12-18T06:14:21.322Z,90.39
2022-12-18T06:15:21.307Z,90.25
2022-12-18T06:16:21.321Z,90.08
2022-12-18T06:17:21.285Z,90.56
2022-12-18T06:18:21.279Z,90.45
2022-12-18T06:19:21.260Z,90.99
2022-12-18T06:20:21.246Z,90.67
2022-12-18T06:21:21.250Z,91.20
2022-12-18T06:22:21.244Z,90.88
2022-12-18T06:23:21.243Z,90.99
2022-12-18T06:24:21.203Z,90.84
2022-12-18T06:25:21.195Z,91.16
2022-12-18T06:26:27.631Z,90.73
2022-12-18T06:27:22.176Z,91.05
2022-12-18T06:28:21.286Z,91.05
2022-12-18T06:29:21.156Z,91.05
2022-12-18T06:30:21.142Z,91.27
2022-12-18T06:31:21.160Z,91.05
2022-12-18T06:32:21.133Z,91.16
2022-12-18T06:33:21.125Z,91.27
2022-12-18T06:34:21.100Z,91.16
2022-12-18T06:35:21.105Z,90.95
2022-12-18T06:36:21.081Z,91.37
2022-12-18T06:37:21.070Z,91.27
2022-12-18T06:38:21.078Z,90.95
2022-12-18T06:39:21.056Z,91.16
2022-12-18T06:40:21.045Z,91.27
2022-12-18T06:41:21.050Z,91.37
2022-12-18T06:42:21.024Z,91.27
2022-12-18T06:43:21.018Z,91.16
2022-12-18T06:44:21.131Z,91.05
2022-12-18T06:45:20.987Z,91.27
2022-12-18T06:46:21.036Z,91.27
2022-12-18T06:47:20.991Z,91.05
2022-12-18T06:48:20.959Z,91.05
2022-12-18T06:49:20.945Z,91.05
2022-12-18T06:50:20.943Z,91.27
2022-12-18T06:51:20.935Z,91.05
2022-12-18T06:52:20.920Z,91.01
2022-12-18T06:53:20.922Z,91.16
2022-12-18T06:54:20.887Z,91.05
2022-12-18T06:55:20.891Z,90.73
2022-12-18T06:56:20.870Z,90.62
2022-12-18T06:57:20.878Z,90.62
2022-12-18T06:58:20.861Z,90.73
2022-12-18T06:59:20.842Z,90.73
2022-12-18T07:00:20.951Z,90.20
2022-12-18T07:01:21.034Z,90.56
2022-12-18T07:02:20.936Z,90.56
2022-12-18T07:03:20.799Z,90.73
2022-12-18T07:04:20.782Z,91.16
2022-12-18T07:05:20.776Z,90.84
2022-12-18T07:06:20.760Z,90.95
2022-12-18T07:07:20.765Z,90.95
2022-12-18T07:08:20.751Z,90.84
2022-12-18T07:09:20.750Z,91.09
2022-12-18T07:10:20.726Z,91.09
2022-12-18T07:11:20.721Z,90.84
2022-12-18T07:12:20.700Z,91.27
2022-12-18T07:13:20.699Z,91.16
2022-12-18T07:14:20.690Z,90.84
2022-12-18T07:15:20.694Z,90.52
2022-12-18T07:16:25.356Z,90.62
2022-12-18T07:17:21.669Z,91.58
2022-12-18T07:18:20.631Z,91.86
2022-12-18T07:19:20.636Z,91.64
2022-12-18T07:20:20.624Z,91.64
2022-12-18T07:21:20.607Z,91.75
2022-12-18T07:22:20.614Z,91.54
2022-12-18T07:23:20.592Z,91.93
2022-12-18T07:24:20.575Z,91.86
2022-12-18T07:25:20.580Z,91.93
2022-12-18T07:26:20.556Z,91.64
2022-12-18T07:27:20.550Z,91.56
2022-12-18T07:28:20.527Z,91.78
2022-12-18T07:29:20.528Z,91.71
2022-12-18T07:30:20.503Z,91.61
2022-12-18T07:31:21.528Z,91.88
2022-12-18T07:32:20.614Z,91.67
2022-12-18T07:33:20.475Z,91.46
2022-12-18T07:34:20.476Z,91.78
2022-12-18T07:35:24.785Z,91.78
2022-12-18T07:36:20.448Z,92.20
2022-12-18T07:37:20.440Z,92.20
2022-12-18T07:38:20.424Z,91.78
2022-12-18T07:39:20.411Z,91.56
2022-12-18T07:40:20.401Z,91.56
2022-12-18T07:41:20.397Z,90.82
2022-12-18T07:42:20.387Z,90.61
2022-12-18T07:43:20.401Z,91.03
2022-12-18T07:44:20.360Z,90.93
2022-12-18T07:45:20.364Z,90.93
2022-12-18T07:46:20.373Z,91.03
2022-12-18T07:47:20.328Z,90.93
2022-12-18T07:48:20.443Z,91.14
2022-12-18T07:49:20.310Z,90.97
2022-12-18T07:50:20.293Z,91.03
2022-12-18T07:51:20.294Z,90.82
2022-12-18T07:52:25.601Z,91.03
2022-12-18T07:53:21.274Z,90.76
2022-12-18T07:54:20.323Z,90.65
2022-12-18T07:55:20.244Z,90.65
2022-12-18T07:56:29.157Z,90.76
2022-12-18T07:57:48.857Z,90.33
2022-12-18T07:58:21.229Z,90.86
2022-12-18T07:59:20.212Z,90.86
2022-12-18T08:00:20.197Z,90.76
2022-12-18T08:01:20.286Z,90.97
2022-12-18T08:02:20.336Z,90.93
2022-12-18T08:03:20.228Z,91.14
2022-12-18T08:04:20.266Z,90.61
2022-12-18T08:05:20.136Z,90.76
2022-12-18T08:06:22.704Z,90.86
2022-12-18T08:07:20.131Z,90.30
2022-12-18T08:08:20.135Z,90.65
2022-12-18T08:09:20.105Z,90.65
2022-12-18T08:10:20.087Z,90.65
2022-12-18T08:11:20.094Z,90.55
2022-12-18T08:12:20.059Z,91.18
2022-12-18T08:13:20.072Z,90.72
2022-12-18T08:14:20.051Z,91.03
2022-12-18T08:15:20.034Z,90.93
2022-12-18T08:16:20.139Z,91.14
2022-12-18T08:17:20.028Z,91.14
2022-12-18T08:18:20.014Z,90.72
2022-12-18T08:19:20.023Z,91.35
2022-12-18T08:20:20.088Z,91.52
2022-12-18T08:21:21.487Z,91.25
2022-12-18T08:22:19.961Z,91.42
2022-12-18T08:23:19.950Z,91.10
2022-12-18T08:24:19.944Z,91.63
2022-12-18T08:25:19.935Z,91.31
2022-12-18T08:26:19.914Z,91.42
2022-12-18T08:27:29.504Z,91.63
2022-12-18T08:28:20.898Z,91.48
2022-12-18T08:29:21.661Z,91.06
2022-12-18T08:30:19.883Z,90.38
2022-12-18T08:31:20.028Z,90.59
2022-12-18T08:32:19.926Z,90.34
2022-12-18T08:33:19.858Z,89.86
2022-12-18T08:34:19.834Z,89.64
2022-12-18T08:35:19.819Z,89.61
2022-12-18T08:36:19.940Z,89.29
2022-12-18T08:37:19.865Z,89.88
2022-12-18T08:38:19.782Z,89.46
2022-12-18T08:39:19.789Z,88.89
2022-12-18T08:40:19.759Z,88.57
2022-12-18T08:41:19.754Z,88.01
2022-12-18T08:42:19.747Z,88.60
2022-12-18T08:43:19.733Z,87.54
2022-12-18T08:44:19.729Z,87.54
2022-12-18T08:45:19.710Z,87.02
2022-12-18T08:46:19.841Z,86.38
2022-12-18T08:47:19.696Z,86.91
2022-12-18T08:48:22.332Z,86.91
2022-12-18T08:49:19.665Z,85.64
2022-12-18T08:50:19.662Z,86.84
2022-12-18T08:51:19.643Z,86.84
2022-12-18T08:52:19.753Z,86.74
2022-12-18T08:53:19.637Z,86.46
2022-12-18T08:54:19.627Z,86.99
2022-12-18T08:55:19.611Z,86.25
2022-12-18T08:56:19.600Z,87.09
2022-12-18T08:57:19.583Z,87.20
2022-12-18T08:58:19.575Z,87.20
2022-12-18T08:59:22.506Z,87.20
2022-12-18T09:00:19.558Z,87.20
2022-12-18T09:01:19.672Z,87.09
2022-12-18T09:02:19.757Z,87.24
2022-12-18T09:03:19.626Z,86.71
2022-12-18T09:04:19.501Z,86.88
2022-12-18T09:05:19.506Z,86.74
2022-12-18T09:06:19.488Z,86.98
2022-12-18T09:07:19.472Z,86.79
2022-12-18T09:08:25.399Z,85.03
2022-12-18T09:09:20.582Z,84.60
2022-12-18T09:10:19.439Z,81.24
2022-12-18T09:11:19.442Z,79.83
2022-12-18T09:12:19.416Z,78.12
2022-12-18T09:13:19.415Z,76.93
2022-12-18T09:14:19.392Z,76.40
2022-12-18T09:15:19.390Z,75.95
2022-12-18T09:16:19.425Z,76.47
2022-12-18T09:17:19.423Z,75.78
2022-12-18T09:18:19.351Z,75.08
2022-12-18T09:19:19.342Z,74.62
2022-12-18T09:20:19.324Z,73.02
2022-12-18T09:21:19.317Z,72.19
2022-12-18T09:22:19.332Z,71.66
2022-12-18T09:23:19.296Z,71.45
2022-12-18T09:24:19.280Z,71.34
2022-12-18T09:25:19.387Z,71.10
2022-12-18T09:26:19.261Z,72.21
2022-12-18T09:27:19.285Z,73.15
2022-12-18T09:28:19.250Z,73.50
2022-12-18T09:29:19.282Z,74.90
2022-12-18T09:30:19.216Z,74.83
2022-12-18T09:31:19.248Z,76.09
2022-12-18T09:32:22.482Z,76.47
2022-12-18T09:33:19.191Z,76.23
2022-12-18T09:34:19.174Z,77.45
2022-12-18T09:35:19.162Z,76.23
2022-12-18T09:36:19.153Z,76.09
2022-12-18T09:37:19.141Z,74.76
2022-12-18T09:38:19.145Z,74.97
2022-12-18T09:39:19.132Z,75.60
2022-12-18T09:40:19.125Z,75.49
2022-12-18T09:41:19.210Z,75.98
2022-12-18T09:42:19.096Z,76.09
2022-12-18T09:43:19.095Z,75.78
2022-12-18T09:44:19.097Z,76.57
2022-12-18T09:45:19.063Z,76.02
2022-12-18T09:46:19.100Z,77.00
2022-12-18T09:47:19.028Z,77.76
2022-12-18T09:48:19.017Z,79.17
2022-12-18T09:49:19.014Z,80.01
2022-12-18T09:50:19.004Z,80.64
2022-12-18T09:51:18.982Z,80.85
2022-12-18T09:52:18.977Z,81.10
2022-12-18T09:53:18.965Z,81.84
2022-12-18T09:54:19.004Z,81.94
2022-12-18T09:55:18.943Z,82.68
2022-12-18T09:56:18.945Z,82.08
2022-12-18T09:57:24.894Z,82.46
2022-12-18T09:58:20.024Z,82.82
2022-12-18T09:59:18.901Z,83.03
2022-12-18T10:00:18.893Z,82.68
2022-12-18T10:01:18.954Z,83.56
2022-12-18T10:02:19.042Z,83.98
2022-12-18T10:03:18.850Z,84.86
2022-12-18T10:04:18.925Z,84.65
2022-12-18T10:05:18.831Z,85.49
2022-12-18T10:06:18.819Z,84.96
2022-12-18T10:07:18.822Z,85.07
2022-12-18T10:08:18.802Z,85.74
2022-12-18T10:09:18.804Z,85.74
2022-12-18T10:10:18.790Z,86.58
2022-12-18T10:11:18.781Z,86.96
2022-12-18T10:12:18.758Z,86.90
2022-12-18T10:13:18.744Z,86.58
2022-12-18T10:14:18.858Z,87.00
2022-12-18T10:15:18.722Z,87.21
2022-12-18T10:16:18.784Z,87.18
2022-12-18T10:17:18.707Z,87.28
2022-12-18T10:18:21.912Z,87.32
2022-12-18T10:19:18.680Z,86.79
2022-12-18T10:20:18.671Z,86.47
2022-12-18T10:21:18.663Z,86.69
2022-12-18T10:22:18.646Z,86.90
2022-12-18T10:23:18.633Z,87.38
2022-12-18T10:24:18.673Z,87.21
2022-12-18T10:25:18.617Z,87.18
2022-12-18T10:26:18.609Z,87.07
2022-12-18T10:27:18.591Z,87.38
2022-12-18T10:28:18.585Z,87.45
2022-12-18T10:29:18.572Z,87.45
2022-12-18T10:30:18.700Z,87.49
2022-12-18T10:31:18.627Z,86.96
2022-12-18T10:32:18.543Z,87.38
2022-12-18T10:33:18.527Z,87.07
2022-12-18T10:34:18.523Z,87.07
2022-12-18T10:35:18.520Z,87.07
2022-12-18T10:36:18.516Z,87.38
2022-12-18T10:37:18.486Z,87.55
2022-12-18T10:38:18.481Z,87.07
2022-12-18T10:39:18.468Z,87.38
2022-12-18T10:40:22.553Z,87.60
2022-12-18T10:41:18.444Z,87.28
2022-12-18T10:42:18.439Z,87.18
2022-12-18T10:43:18.423Z,87.49
2022-12-18T10:44:18.415Z,87.81
2022-12-18T10:45:18.414Z,88.96
2022-12-18T10:46:18.633Z,87.81
2022-12-18T10:47:18.380Z,88.18
2022-12-18T10:48:18.376Z,88.40
2022-12-18T10:49:18.359Z,87.87
2022-12-18T10:50:18.428Z,88.50
2022-12-18T10:51:18.339Z,88.40
2022-12-18T10:52:18.345Z,88.50
2022-12-18T10:53:18.317Z,88.71
2022-12-18T10:54:18.315Z,88.29
2022-12-18T10:55:18.295Z,88.04
2022-12-18T10:56:18.287Z,88.15
2022-12-18T10:57:18.292Z,88.25
2022-12-18T10:58:22.240Z,88.57
2022-12-18T10:59:19.254Z,88.35
2022-12-18T11:00:18.294Z,88.67
2022-12-18T11:01:18.425Z,88.57
2022-12-18T11:02:18.509Z,88.78
2022-12-18T11:03:18.318Z,88.63
2022-12-18T11:04:18.203Z,88.84
2022-12-18T11:05:18.199Z,88.10
2022-12-18T11:06:18.199Z,87.79
2022-12-18T11:07:18.167Z,88.10
2022-12-18T11:08:18.167Z,87.79
2022-12-18T11:09:18.145Z,88.42
2022-12-18T11:10:18.217Z,88.53
2022-12-18T11:11:18.124Z,88.42
2022-12-18T11:12:18.122Z,88.38
2022-12-18T11:13:18.109Z,88.07
2022-12-18T11:14:18.097Z,87.96
2022-12-18T11:15:18.086Z,88.38
2022-12-18T11:16:18.117Z,87.75
2022-12-18T11:17:26.427Z,87.85
2022-12-18T11:18:19.172Z,87.27
2022-12-18T11:19:18.057Z,87.75
2022-12-18T11:20:18.041Z,87.96
2022-12-18T11:21:18.018Z,87.75
2022-12-18T11:22:18.021Z,88.49
2022-12-18T11:23:17.993Z,88.80
2022-12-18T11:24:18.024Z,88.70
2022-12-18T11:25:35.034Z,88.59
2022-12-18T11:26:18.967Z,87.85
2022-12-18T11:27:17.953Z,88.59
2022-12-18T11:28:17.942Z,88.49
2022-12-18T11:29:17.950Z,88.28
2022-12-18T11:30:18.014Z,88.38
2022-12-18T11:31:18.033Z,88.49
2022-12-18T11:32:17.917Z,88.70
2022-12-18T11:33:17.890Z,88.59
2022-12-18T11:34:29.156Z,88.49
2022-12-18T11:35:18.889Z,88.87
2022-12-18T11:36:17.861Z,89.12
2022-12-18T11:37:17.854Z,88.87
2022-12-18T11:38:17.839Z,88.80
2022-12-18T11:39:17.827Z,89.22
2022-12-18T11:40:17.824Z,89.18
2022-12-18T11:41:17.802Z,88.91
2022-12-18T11:42:17.805Z,88.91
2022-12-18T11:43:17.787Z,89.12
2022-12-18T11:44:17.780Z,89.32
2022-12-18T11:45:17.770Z,89.32
2022-12-18T11:46:19.876Z,89.22
2022-12-18T11:47:17.740Z,89.01
2022-12-18T11:48:17.745Z,89.07
2022-12-18T11:49:17.742Z,89.07
2022-12-18T11:50:17.851Z,89.07
2022-12-18T11:51:17.697Z,89.50
2022-12-18T11:52:17.689Z,89.60
2022-12-18T11:53:17.681Z,89.07
2022-12-18T11:54:17.676Z,89.60
2022-12-18T11:55:17.673Z,89.39
2022-12-18T11:56:17.675Z,89.07
2022-12-18T11:57:17.631Z,89.71
2022-12-18T11:58:17.626Z,89.71
2022-12-18T11:59:17.616Z,89.50
2022-12-18T12:00:17.610Z,89.29
2022-12-18T12:01:17.798Z,89.50
2022-12-18T12:02:17.696Z,89.60
2022-12-18T12:03:17.653Z,89.50
2022-12-18T12:04:17.673Z,90.12
2022-12-18T12:05:17.637Z,90.12
2022-12-18T12:06:18.130Z,90.44
2022-12-18T12:07:17.539Z,89.81
2022-12-18T12:08:17.524Z,90.34
2022-12-18T12:09:17.535Z,90.34
2022-12-18T12:10:17.504Z,90.44
2022-12-18T12:11:18.473Z,90.12
2022-12-18T12:12:17.500Z,90.61
2022-12-18T12:13:17.470Z,90.76
2022-12-18T12:14:17.456Z,90.92
2022-12-18T12:15:17.443Z,90.92
2022-12-18T12:16:17.484Z,90.72
2022-12-18T12:17:17.421Z,90.82
2022-12-18T12:18:17.419Z,90.09
2022-12-18T12:19:17.411Z,90.61
2022-12-18T12:20:17.404Z,90.61
2022-12-18T12:21:17.375Z,90.82
2022-12-18T12:22:17.496Z,91.24
2022-12-18T12:23:17.373Z,90.72
2022-12-18T12:24:17.349Z,91.35
2022-12-18T12:25:17.346Z,91.24
2022-12-18T12:26:17.326Z,91.24
2022-12-18T12:27:17.320Z,90.67
2022-12-18T12:28:17.312Z,91.03
2022-12-18T12:29:21.131Z,90.92
2022-12-18T12:30:17.285Z,91.03
2022-12-18T12:31:17.324Z,91.24
2022-12-18T12:32:17.265Z,90.92
2022-12-18T12:33:17.262Z,91.45
2022-12-18T12:34:17.981Z,91.56
2022-12-18T12:35:17.228Z,91.45
2022-12-18T12:36:17.225Z,91.41
2022-12-18T12:37:17.204Z,91.41
2022-12-18T12:38:17.317Z,91.41
2022-12-18T12:39:17.196Z,91.62
2022-12-18T12:40:49.166Z,91.62
2022-12-18T12:41:18.174Z,91.62
2022-12-18T12:42:17.154Z,91.41
2022-12-18T12:43:17.179Z,91.41
2022-12-18T12:44:17.138Z,91.41
2022-12-18T12:45:17.147Z,91.41
2022-12-18T12:46:17.231Z,91.62
2022-12-18T12:47:17.107Z,90.99
2022-12-18T12:48:17.116Z,90.99
2022-12-18T12:49:17.084Z,91.52
2022-12-18T12:50:17.071Z,92.04
2022-12-18T12:51:17.070Z,91.94
2022-12-18T12:52:17.062Z,91.14